createdAt,value
2023-04-12T00:01:46.088Z,2.72
2023-04-12T00:04:14.533Z,2.38
2023-04-12T00:06:42.877Z,1.95
2023-04-12T00:09:11.231Z,2.75
2023-04-12T00:11:39.252Z,2.60
2023-04-12T00:14:08.453Z,2.42
2023-04-12T00:16:38.200Z,2.22
2023-04-12T00:19:06.615Z,2.90
2023-04-12T00:21:34.487Z,2.15
2023-04-12T00:24:02.519Z,2.60
2023-04-12T00:26:30.290Z,2.90
2023-04-12T00:28:58.314Z,2.30
2023-04-12T00:31:27.543Z,2.88
2023-04-12T00:33:55.995Z,2.30
2023-04-12T00:36:24.273Z,2.20
2023-04-12T00:38:51.993Z,2.25
2023-04-12T00:41:19.922Z,2.50
2023-04-12T00:43:48.110Z,2.60
2023-04-12T00:46:17.504Z,2.88
2023-04-12T00:48:48.147Z,2.10
2023-04-12T00:51:18.158Z,2.70
2023-04-12T00:53:46.386Z,2.67
2023-04-12T00:56:14.428Z,2.80
2023-04-12T00:58:42.291Z,2.50
2023-04-12T01:01:10.716Z,2.10
2023-04-12T01:03:43.295Z,2.97
2023-04-12T01:06:17.448Z,2.33
2023-04-12T01:08:55.816Z,2.42
2023-04-12T01:11:32.339Z,2.55
2023-04-12T01:14:09.581Z,2.03
2023-04-12T01:19:38.111Z,2.35
2023-04-12T01:22:18.227Z,2.42
2023-04-12T01:24:57.556Z,2.58
2023-04-12T01:27:40.645Z,2.38
2023-04-12T01:30:12.997Z,2.15
2023-04-12T01:32:45.518Z,2.78
2023-04-12T01:35:14.891Z,2.83
2023-04-12T01:37:43.909Z,2.40
2023-04-12T01:40:13.988Z,2.38
2023-04-12T01:42:43.253Z,2.47
2023-04-12T01:45:11.817Z,2.22
2023-04-12T01:47:40.187Z,2.33
2023-04-12T01:50:16.152Z,2.20
2023-04-12T01:52:51.087Z,3.05
2023-04-12T01:55:22.018Z,2.58
2023-04-12T01:57:53.043Z,2.38
2023-04-12T02:00:21.929Z,2.38
2023-04-12T02:02:50.128Z,2.80
2023-04-12T02:05:19.005Z,2.53
2023-04-12T02:07:48.098Z,2.90
2023-04-12T02:10:29.467Z,2.42
2023-04-12T02:13:01.439Z,2.53
2023-04-12T02:15:30.291Z,2.53
2023-04-12T02:17:59.712Z,2.35
2023-04-12T02:20:27.923Z,2.05
2023-04-12T02:22:56.239Z,2.40
2023-04-12T02:25:24.264Z,2.40
2023-04-12T02:27:52.233Z,2.65
2023-04-12T02:30:22.787Z,3.22
2023-04-12T02:32:53.878Z,2.42
2023-04-12T02:35:28.714Z,2.65
2023-04-12T02:38:03.926Z,2.00
2023-04-12T02:40:31.851Z,2.53
2023-04-12T02:42:59.809Z,2.72
2023-04-12T02:45:29.590Z,2.42
2023-04-12T02:47:58.289Z,2.40
2023-04-12T02:50:29.996Z,2.35
2023-04-12T02:53:05.441Z,2.13
2023-04-12T02:55:33.479Z,2.53
2023-04-12T02:58:04.192Z,2.53
2023-04-12T03:00:34.813Z,2.45
2023-04-12T03:03:04.148Z,2.47
2023-04-12T03:05:33.434Z,2.85
2023-04-12T03:08:01.712Z,3.38
2023-04-12T03:10:39.619Z,1.98
2023-04-12T03:13:07.471Z,2.40
2023-04-12T03:15:48.375Z,2.08
2023-04-12T03:18:17.227Z,1.90
2023-04-12T03:20:48.679Z,1.77
2023-04-12T03:23:17.971Z,2.13
2023-04-12T03:25:50.814Z,2.55
2023-04-12T03:28:32.189Z,1.65
2023-04-12T03:31:03.021Z,2.00
2023-04-12T03:33:40.676Z,1.75
2023-04-12T03:36:17.346Z,1.77
2023-04-12T03:38:48.197Z,2.08
2023-04-12T03:41:16.677Z,2.00
2023-04-12T03:43:44.381Z,1.83
2023-04-12T03:46:19.728Z,1.80
2023-04-12T03:48:55.756Z,2.10
2023-04-12T03:51:27.020Z,1.67
2023-04-12T03:54:02.805Z,2.03
2023-04-12T03:56:36.705Z,2.47
2023-04-12T03:59:08.760Z,1.77
2023-04-12T04:01:39.902Z,1.50
2023-04-12T04:04:08.104Z,1.50
2023-04-12T04:06:36.553Z,1.70
2023-04-12T04:09:05.603Z,1.55
2023-04-12T04:11:37.745Z,1.52
2023-04-12T04:14:08.371Z,1.60
2023-04-12T04:16:36.837Z,1.35
2023-04-12T04:19:08.314Z,1.88
2023-04-12T04:21:36.123Z,1.80
2023-04-12T04:24:07.060Z,1.77
2023-04-12T04:26:39.437Z,1.90
2023-04-12T04:29:13.493Z,2.50
2023-04-12T04:31:41.407Z,1.80
2023-04-12T04:34:12.852Z,1.73
2023-04-12T04:36:45.039Z,1.70
2023-04-12T04:39:17.677Z,1.73
2023-04-12T04:41:46.683Z,2.45
2023-04-12T04:44:22.532Z,1.92
2023-04-12T04:47:00.744Z,2.33
2023-04-12T04:49:30.057Z,2.35
2023-04-12T04:52:05.013Z,1.83
2023-04-12T04:54:33.210Z,2.60
2023-04-12T04:57:03.035Z,2.00
2023-04-12T04:59:31.184Z,3.15
2023-04-12T05:02:12.086Z,2.83
2023-04-12T05:04:41.464Z,2.45
2023-04-12T05:07:13.190Z,2.53
2023-04-12T05:09:43.624Z,2.42
2023-04-12T05:12:11.804Z,2.70
2023-04-12T05:14:47.289Z,2.75
2023-04-12T05:17:19.217Z,2.40
2023-04-12T05:19:48.506Z,2.80
2023-04-12T05:22:20.275Z,3.00
2023-04-12T05:24:48.230Z,2.60
2023-04-12T05:27:17.118Z,2.80
2023-04-12T05:29:47.152Z,2.97
2023-04-12T05:32:16.650Z,3.20
2023-04-12T05:34:44.644Z,2.63
2023-04-12T05:37:13.850Z,3.00
2023-04-12T05:39:41.624Z,2.90
2023-04-12T05:42:11.308Z,2.95
2023-04-12T05:44:40.270Z,2.90
2023-04-12T05:47:12.130Z,2.65
2023-04-12T05:49:40.105Z,2.60
2023-04-12T05:52:10.851Z,2.85
2023-04-12T05:54:40.296Z,2.55
2023-04-12T05:57:10.791Z,3.17
2023-04-12T05:59:38.570Z,3.00
2023-04-12T06:02:06.403Z,2.58
2023-04-12T06:04:48.778Z,2.47
2023-04-12T06:07:19.381Z,2.70
2023-04-12T06:09:49.785Z,3.17
2023-04-12T06:12:18.482Z,2.35
2023-04-12T06:14:46.615Z,2.78
2023-04-12T06:17:14.498Z,2.50
2023-04-12T06:19:43.066Z,2.55
2023-04-12T06:22:10.845Z,2.35
2023-04-12T06:24:40.670Z,2.72
2023-04-12T06:27:11.447Z,2.63
2023-04-12T06:29:39.260Z,2.53
2023-04-12T06:32:07.480Z,2.72
2023-04-12T06:34:36.133Z,2.17
2023-04-12T06:37:18.471Z,2.40
2023-04-12T06:39:46.192Z,2.63
2023-04-12T06:42:16.588Z,2.70
2023-04-12T06:44:44.330Z,2.80
2023-04-12T06:47:12.261Z,2.45
2023-04-12T06:49:40.514Z,2.95
2023-04-12T06:52:08.460Z,2.97
2023-04-12T06:54:37.632Z,2.33
2023-04-12T06:57:09.394Z,2.38
2023-04-12T06:59:38.482Z,2.45
2023-04-12T07:02:07.696Z,2.60
2023-04-12T07:04:35.690Z,2.30
2023-04-12T07:07:03.537Z,1.52
2023-04-12T07:09:32.250Z,2.10
2023-04-12T07:12:00.163Z,2.22
2023-04-12T07:14:27.971Z,1.95
2023-04-12T07:16:57.633Z,2.30
2023-04-12T07:19:25.484Z,3.00
2023-04-12T07:21:53.290Z,2.70
2023-04-12T07:24:21.128Z,2.10
2023-04-12T07:26:48.914Z,2.13
2023-04-12T07:29:17.069Z,2.83
2023-04-12T07:31:45.665Z,2.03
2023-04-12T07:34:14.958Z,2.55
2023-04-12T07:36:44.051Z,2.40
2023-04-12T07:39:12.918Z,2.30
2023-04-12T07:41:42.256Z,2.60
2023-04-12T07:44:10.053Z,2.17
2023-04-12T07:46:37.842Z,2.20
2023-04-12T07:49:05.947Z,2.63
2023-04-12T07:51:35.096Z,2.13
2023-04-12T07:54:03.733Z,2.15
2023-04-12T07:56:31.663Z,2.58
2023-04-12T07:58:59.912Z,2.35
2023-04-12T08:01:28.483Z,2.10
2023-04-12T08:03:56.933Z,2.15
2023-04-12T08:06:26.825Z,1.90
2023-04-12T08:08:57.800Z,1.98
2023-04-12T08:11:25.633Z,2.00
2023-04-12T08:13:53.512Z,2.35
2023-04-12T08:16:21.499Z,1.88
2023-04-12T08:18:49.324Z,2.03
2023-04-12T08:21:17.119Z,2.13
2023-04-12T08:23:45.138Z,1.98
2023-04-12T08:26:14.436Z,2.20
2023-04-12T08:28:42.768Z,1.80
2023-04-12T08:31:11.481Z,2.10
2023-04-12T08:33:39.218Z,2.28
2023-04-12T08:36:08.159Z,2.35
2023-04-12T08:38:45.018Z,2.58
2023-04-12T08:41:15.336Z,2.05
2023-04-12T08:43:46.244Z,2.30
2023-04-12T08:46:16.490Z,2.40
2023-04-12T08:48:46.570Z,2.05
2023-04-12T08:51:16.098Z,1.80
2023-04-12T08:53:44.352Z,2.80
2023-04-12T08:56:13.457Z,2.50
2023-04-12T08:58:48.935Z,2.75
2023-04-12T09:01:18.692Z,2.28
2023-04-12T09:03:47.518Z,2.20
2023-04-12T09:06:15.697Z,2.97
2023-04-12T09:08:54.457Z,2.33
2023-04-12T09:11:24.437Z,2.33
2023-04-12T09:13:54.615Z,2.80
2023-04-12T09:16:36.434Z,2.40
2023-04-12T09:19:04.646Z,2.95
2023-04-12T09:21:34.713Z,2.58
2023-04-12T09:24:12.369Z,2.97
2023-04-12T09:26:42.096Z,3.17
2023-04-12T09:29:24.128Z,3.17
2023-04-12T09:32:01.568Z,3.13
2023-04-12T09:34:30.004Z,3.22
2023-04-12T09:36:58.908Z,4.07
2023-04-12T09:39:34.112Z,3.22
2023-04-12T09:42:08.913Z,4.07
2023-04-12T09:44:42.077Z,3.22
2023-04-12T09:47:10.013Z,3.67
2023-04-12T09:49:39.753Z,4.28
2023-04-12T09:52:08.862Z,3.38
2023-04-12T09:54:40.387Z,3.58
2023-04-12T09:57:09.308Z,3.17
2023-04-12T09:59:39.540Z,3.58
2023-04-12T10:02:16.645Z,3.22
2023-04-12T10:04:45.630Z,3.70
2023-04-12T10:07:15.184Z,3.63
2023-04-12T10:09:43.525Z,4.50
2023-04-12T10:12:11.432Z,3.88
2023-04-12T10:14:40.433Z,4.63
2023-04-12T10:17:12.172Z,3.90
2023-04-12T10:19:41.011Z,4.57
2023-04-12T10:22:08.838Z,4.05
2023-04-12T10:24:37.002Z,3.95
2023-04-12T10:27:05.605Z,4.65
2023-04-12T10:29:37.082Z,3.92
2023-04-12T10:32:22.965Z,4.13
2023-04-12T10:34:56.480Z,4.85
2023-04-12T10:37:58.940Z,3.50
2023-04-12T10:40:27.464Z,3.80
2023-04-12T10:43:26.417Z,3.78
2023-04-12T10:45:54.584Z,3.70
2023-04-12T10:48:33.036Z,3.70
2023-04-12T10:51:15.267Z,3.08
2023-04-12T10:53:43.290Z,2.92
2023-04-12T10:56:37.465Z,3.40
2023-04-12T10:59:06.379Z,3.13
2023-04-12T11:01:41.336Z,2.42
2023-04-12T11:04:17.024Z,3.58
2023-04-12T11:07:11.252Z,2.95
2023-04-12T11:10:03.027Z,3.50
2023-04-12T11:12:35.537Z,2.75
2023-04-12T11:15:06.192Z,2.80
2023-04-12T11:17:54.465Z,2.25
2023-04-12T11:20:24.168Z,2.38
2023-04-12T11:22:53.949Z,2.15
2023-04-12T11:25:24.130Z,2.35
2023-04-12T11:27:53.562Z,2.33
2023-04-12T11:30:23.704Z,2.50
2023-04-12T11:32:51.793Z,2.42
2023-04-12T11:35:24.462Z,2.45
2023-04-12T11:37:53.829Z,2.85
2023-04-12T11:40:23.426Z,2.50
2023-04-12T11:42:51.354Z,2.67
2023-04-12T11:45:20.962Z,2.53
2023-04-12T11:47:49.214Z,3.08
2023-04-12T11:50:29.789Z,2.35
2023-04-12T11:53:10.894Z,2.17
2023-04-12T11:55:39.047Z,2.20
2023-04-12T11:58:07.614Z,2.42
2023-04-12T12:00:36.431Z,2.13
2023-04-12T12:03:08.359Z,3.17
2023-04-12T12:05:38.733Z,2.42
2023-04-12T12:08:08.918Z,2.83
2023-04-12T12:10:52.011Z,3.03
2023-04-12T12:13:25.452Z,2.30
2023-04-12T12:15:53.966Z,2.55
2023-04-12T12:18:27.574Z,2.53
2023-04-12T12:23:33.312Z,2.40
2023-04-12T12:26:17.580Z,2.42
2023-04-12T12:28:51.078Z,2.60
2023-04-12T12:31:21.669Z,2.58
2023-04-12T12:33:49.797Z,3.25
2023-04-12T12:36:21.149Z,2.08
2023-04-12T12:38:54.333Z,2.28
2023-04-12T12:41:23.545Z,2.55
2023-04-12T12:43:53.425Z,2.58
2023-04-12T12:46:21.746Z,2.60
2023-04-12T12:48:49.912Z,2.75
2023-04-12T12:51:19.832Z,2.90
2023-04-12T12:53:48.558Z,3.13
2023-04-12T12:56:18.026Z,2.72
2023-04-12T12:58:46.710Z,3.35
2023-04-12T13:01:14.784Z,3.55
2023-04-12T13:03:42.799Z,3.33
2023-04-12T13:06:10.924Z,3.00
2023-04-12T13:08:38.735Z,4.30
2023-04-12T13:11:07.161Z,2.88
2023-04-12T13:13:37.245Z,2.50
2023-04-12T13:16:06.147Z,2.35
2023-04-12T13:18:34.198Z,2.55
2023-04-12T13:21:02.299Z,2.63
2023-04-12T13:23:30.858Z,2.35
2023-04-12T13:25:59.017Z,2.10
2023-04-12T13:28:26.822Z,1.75
2023-04-12T13:30:57.393Z,3.53
2023-04-12T13:33:25.490Z,2.47
2023-04-12T13:35:53.469Z,2.65
2023-04-12T13:38:21.339Z,2.30
2023-04-12T13:40:49.250Z,2.80
2023-04-12T13:43:17.707Z,2.90
2023-04-12T13:45:45.772Z,4.57
2023-04-12T13:48:15.045Z,2.20
2023-04-12T13:50:42.982Z,2.47
2023-04-12T13:53:10.799Z,2.70
2023-04-12T13:55:38.831Z,2.65
2023-04-12T13:58:06.924Z,2.08
2023-04-12T14:00:34.809Z,2.03
2023-04-12T14:03:02.848Z,1.70
2023-04-12T14:05:32.135Z,1.88
2023-04-12T14:08:00.114Z,1.95
2023-04-12T14:10:28.117Z,1.63
2023-04-12T14:12:56.375Z,1.85
2023-04-12T14:15:24.234Z,1.35
2023-04-12T14:17:52.312Z,2.10
2023-04-12T14:20:20.987Z,1.52
2023-04-12T14:22:50.617Z,1.35
2023-04-12T14:25:18.939Z,2.08
2023-04-12T14:27:46.839Z,2.80
2023-04-12T14:30:17.011Z,1.55
2023-04-12T14:32:47.449Z,1.80
2023-04-12T14:35:15.866Z,2.10
2023-04-12T14:37:44.190Z,2.00
2023-04-12T14:40:13.781Z,1.85
2023-04-12T14:42:41.678Z,2.55
2023-04-12T14:45:11.061Z,1.85
2023-04-12T14:47:39.186Z,2.92
2023-04-12T14:50:08.284Z,2.50
2023-04-12T14:52:36.339Z,1.77
2023-04-12T14:55:04.921Z,2.10
2023-04-12T14:57:35.197Z,2.22
2023-04-12T15:00:04.459Z,2.40
2023-04-12T15:02:32.835Z,2.30
2023-04-12T15:05:04.123Z,2.42
2023-04-12T15:07:32.129Z,2.17
2023-04-12T15:10:00.687Z,2.28
2023-04-12T15:12:29.107Z,2.25
2023-04-12T15:14:58.384Z,3.33
2023-04-12T15:17:26.613Z,2.22
2023-04-12T15:19:54.738Z,2.47
2023-04-12T15:22:25.837Z,3.47
2023-04-12T15:24:53.783Z,2.70
2023-04-12T15:27:21.747Z,2.25
2023-04-12T15:29:49.545Z,2.80
2023-04-12T15:32:18.884Z,2.08
2023-04-12T15:34:46.984Z,2.40
2023-04-12T15:37:15.861Z,2.60
2023-04-12T15:39:43.780Z,2.50
2023-04-12T15:42:11.755Z,2.40
2023-04-12T15:44:42.761Z,1.80
2023-04-12T15:47:12.066Z,1.58
2023-04-12T15:49:41.689Z,2.03
2023-04-12T15:52:09.523Z,1.83
2023-04-12T15:54:43.529Z,2.10
2023-04-12T15:57:11.944Z,2.00
2023-04-12T15:59:41.767Z,1.77
2023-04-12T16:02:10.319Z,2.00
2023-04-12T16:04:39.391Z,1.70
2023-04-12T16:07:09.046Z,1.95
2023-04-12T16:09:39.634Z,2.22
2023-04-12T16:12:07.754Z,2.00
2023-04-12T16:14:36.872Z,2.15
2023-04-12T16:17:05.065Z,1.92
2023-04-12T16:19:33.374Z,2.15
2023-04-12T16:22:01.888Z,1.73
2023-04-12T16:24:31.529Z,1.52
2023-04-12T16:26:59.342Z,2.00
2023-04-12T16:29:27.085Z,2.05
2023-04-12T16:31:55.060Z,2.03
2023-04-12T16:34:23.389Z,2.70
2023-04-12T16:36:52.985Z,2.30
2023-04-12T16:39:20.743Z,2.20
2023-04-12T16:41:49.883Z,4.80
2023-04-12T16:44:18.902Z,4.03
2023-04-12T16:46:47.756Z,1.95
2023-04-12T16:49:17.610Z,1.33
2023-04-12T16:51:46.942Z,1.77
2023-04-12T16:54:14.930Z,3.72
2023-04-12T16:56:42.791Z,2.03
2023-04-12T16:59:12.023Z,1.65
2023-04-12T17:01:40.212Z,2.00
2023-04-12T17:04:08.279Z,1.83
2023-04-12T17:06:36.147Z,1.60
2023-04-12T17:09:04.992Z,2.10
2023-04-12T17:11:33.244Z,2.10
2023-04-12T17:14:01.176Z,2.70
2023-04-12T17:16:30.674Z,2.22
2023-04-12T17:18:59.089Z,2.03
2023-04-12T17:21:27.847Z,1.60
2023-04-12T17:23:56.569Z,1.70
2023-04-12T17:26:27.347Z,1.85
2023-04-12T17:28:56.939Z,1.20
2023-04-12T17:31:27.012Z,1.80
2023-04-12T17:33:56.866Z,1.98
2023-04-12T17:36:24.929Z,2.10
2023-04-12T17:38:54.865Z,1.73
2023-04-12T17:41:23.193Z,2.15
2023-04-12T17:43:51.248Z,2.13
2023-04-12T17:46:19.074Z,1.95
2023-04-12T17:48:47.459Z,1.80
2023-04-12T17:51:16.749Z,1.58
2023-04-12T17:53:45.716Z,1.52
2023-04-12T17:56:13.982Z,2.72
2023-04-12T17:58:42.274Z,1.88
2023-04-12T18:01:11.993Z,1.88
2023-04-12T18:03:40.151Z,1.83
2023-04-12T18:06:08.620Z,2.10
2023-04-12T18:08:38.523Z,2.28
2023-04-12T18:11:08.012Z,2.13
2023-04-12T18:13:35.852Z,1.98
2023-04-12T18:16:04.102Z,2.25
2023-04-12T18:18:31.961Z,1.90
2023-04-12T18:20:59.812Z,2.25
2023-04-12T18:23:27.704Z,2.72
2023-04-12T18:25:56.952Z,2.70
2023-04-12T18:28:25.800Z,1.88
2023-04-12T18:30:54.998Z,2.17
2023-04-12T18:33:24.677Z,2.63
2023-04-12T18:35:53.097Z,2.00
2023-04-12T18:38:20.823Z,2.00
2023-04-12T18:40:49.100Z,1.77
2023-04-12T18:43:18.310Z,2.70
2023-04-12T18:45:46.181Z,2.85
2023-04-12T18:48:14.353Z,2.45
2023-04-12T18:50:42.333Z,2.33
2023-04-12T18:53:10.934Z,3.15
2023-04-12T18:55:38.806Z,2.78
2023-04-12T18:58:06.996Z,2.75
2023-04-12T19:00:36.421Z,3.13
2023-04-12T19:03:04.651Z,2.85
2023-04-12T19:05:32.932Z,2.97
2023-04-12T19:08:01.495Z,2.78
2023-04-12T19:10:30.889Z,2.92
2023-04-12T19:12:59.310Z,2.85
2023-04-12T19:15:27.212Z,3.17
2023-04-12T19:17:58.319Z,2.40
2023-04-12T19:20:27.551Z,2.47
2023-04-12T19:22:55.663Z,2.25
2023-04-12T19:25:29.543Z,2.55
2023-04-12T19:28:00.126Z,3.13
2023-04-12T19:30:28.146Z,3.20
2023-04-12T19:32:58.971Z,4.03
2023-04-12T19:35:28.830Z,3.88
2023-04-12T19:37:57.417Z,2.88
2023-04-12T19:40:25.342Z,3.25
2023-04-12T19:42:53.342Z,3.38
2023-04-12T19:45:21.297Z,2.80
2023-04-12T19:47:49.394Z,3.72
2023-04-12T19:50:19.720Z,3.08
2023-04-12T19:52:48.802Z,3.25
2023-04-12T19:55:17.801Z,3.53
2023-04-12T19:57:46.043Z,3.25
2023-04-12T20:00:19.590Z,3.00
2023-04-12T20:05:15.798Z,3.67
2023-04-12T20:07:45.268Z,3.28
2023-04-12T20:10:15.414Z,3.85
2023-04-12T20:12:44.525Z,2.55
2023-04-12T20:15:13.715Z,2.90
2023-04-12T20:17:42.957Z,2.90
2023-04-12T20:20:12.769Z,3.22
2023-04-12T20:22:41.134Z,3.20
2023-04-12T20:25:11.153Z,2.20
2023-04-12T20:27:39.706Z,2.78
2023-04-12T20:30:11.357Z,2.42
2023-04-12T20:32:39.556Z,2.95
2023-04-12T20:35:09.213Z,2.55
2023-04-12T20:37:37.676Z,2.20
2023-04-12T20:40:09.815Z,2.03
2023-04-12T20:42:39.301Z,2.25
2023-04-12T20:45:08.441Z,1.90
2023-04-12T20:47:37.993Z,1.60
2023-04-12T20:50:07.456Z,1.77
2023-04-12T20:52:35.308Z,1.80
2023-04-12T20:55:05.925Z,2.00
2023-04-12T20:57:34.642Z,1.65
2023-04-12T21:00:12.481Z,1.70
2023-04-12T21:02:40.584Z,1.50
2023-04-12T21:05:08.925Z,2.13
2023-04-12T21:07:37.494Z,1.73
2023-04-12T21:10:06.077Z,1.95
2023-04-12T21:12:35.455Z,1.80
2023-04-12T21:15:05.980Z,2.05
2023-04-12T21:17:34.321Z,2.05
2023-04-12T21:20:07.288Z,2.00
2023-04-12T21:22:35.036Z,1.83
2023-04-12T21:25:02.916Z,2.10
2023-04-12T21:27:31.022Z,2.15
2023-04-12T21:29:58.963Z,2.72
2023-04-12T21:32:30.180Z,2.17
2023-04-12T21:34:58.631Z,2.03
2023-04-12T21:37:27.040Z,2.10
2023-04-12T21:39:55.558Z,2.13
2023-04-12T21:42:23.544Z,2.00
2023-04-12T21:44:51.589Z,1.65
2023-04-12T21:47:20.051Z,1.33
2023-04-12T21:49:49.230Z,1.95
2023-04-12T21:52:17.035Z,2.22
2023-04-12T21:54:44.782Z,1.88
2023-04-12T21:57:12.464Z,1.40
2023-04-12T21:59:42.553Z,1.30
2023-04-12T22:02:10.554Z,1.80
2023-04-12T22:04:38.400Z,1.77
2023-04-12T22:07:10.326Z,1.45
2023-04-12T22:09:38.131Z,1.35
2023-04-12T22:12:08.748Z,1.65
2023-04-12T22:14:37.585Z,1.38
2023-04-12T22:17:06.758Z,1.45
2023-04-12T22:19:34.658Z,2.42
2023-04-12T22:22:02.947Z,1.35
2023-04-12T22:24:32.407Z,1.40
2023-04-12T22:27:01.324Z,2.20
2023-04-12T22:29:30.492Z,1.77
2023-04-12T22:31:58.392Z,1.80
2023-04-12T22:34:27.745Z,1.65
2023-04-12T22:36:58.857Z,1.77
2023-04-12T22:39:27.670Z,1.60
2023-04-12T22:41:57.448Z,1.70
2023-04-12T22:44:26.943Z,1.83
2023-04-12T22:46:56.658Z,1.92
2023-04-12T22:49:28.127Z,1.63
2023-04-12T22:51:56.596Z,1.60
2023-04-12T22:54:24.921Z,1.50
2023-04-12T22:56:53.046Z,1.55
2023-04-12T22:59:23.360Z,2.08
2023-04-12T23:01:51.430Z,2.08
2023-04-12T23:04:19.347Z,1.83
2023-04-12T23:06:47.637Z,2.13
2023-04-12T23:09:15.860Z,1.92
2023-04-12T23:11:44.086Z,1.67
2023-04-12T23:14:12.939Z,1.60
2023-04-12T23:16:47.761Z,2.00
2023-04-12T23:19:19.459Z,2.08
2023-04-12T23:21:47.790Z,1.83
2023-04-12T23:24:16.584Z,1.95
2023-04-12T23:26:45.404Z,1.83
2023-04-12T23:29:13.934Z,1.73
2023-04-12T23:31:45.260Z,1.70
2023-04-12T23:34:13.531Z,1.95
2023-04-12T23:36:41.241Z,2.00
2023-04-12T23:39:09.220Z,2.13
2023-04-12T23:41:37.119Z,1.60
2023-04-12T23:44:05.496Z,2.35
2023-04-12T23:46:33.189Z,2.05
2023-04-12T23:49:02.842Z,2.33
2023-04-12T23:51:30.673Z,2.20
2023-04-12T23:53:58.737Z,2.30
2023-04-12T23:56:27.241Z,1.92
2023-04-12T23:58:55.859Z,2.17
